Latest Weather Observations for Bombala AWS

IDN60801

Issued at 3:35 am EST Saturday 20 September 2014 (issued every 30 minutes, with the page automatically refreshed every 10 minutes)

About weather observations | Map of weather stations | Latest weather observations for NSW | Other Formats
Station Details ID: 070328 Name: BOMBALA AWS Lat: -37.00 Lon: 149.23 Height: 760.5 m
Data from the previous 72 hours. | See also: Recent months at Bombala AWS
Date/Time
EST
Temp
°C
App
Temp
°C
Dew
Point
Rel
Hum
%
Delta-T
°C
Wind Press
QNH
hPa
Press
MSL
hPa
Rain
since 9 am
mm
Dir
 
Spd
km/h
Gust
km/h
Spd
kts
Gust
kts
20/03:30am 5.3 0.8 2.3 81 1.3 WSW 15 22 8 12 1022.1 1022.2 0.0
20/03:00am 4.8 -1.5 1.8 81 1.2 WSW 24 37 13 20 1021.7 1021.8 0.0
20/02:30am 4.7 -3.1 1.9 82 1.2 WSW 32 48 17 26 1021.5 1021.5 0.0
20/02:00am 4.9 -3.4 2.1 82 1.2 WSW 35 46 19 25 1021.4 1021.4 0.0
20/01:30am 5.1 -4.3 2.1 81 1.3 WSW 41 56 22 30 1021.2 1021.2 0.0
20/01:20am 5.1 -4.3 2.1 81 1.3 WSW 41 61 22 33 1021.1 1021.1 0.0
20/01:00am 5.3 -4.1 2.5 82 1.2 WSW 41 52 22 28 1021.1 1021.1 0.0
20/12:30am 5.2 -4.2 2.6 83 1.1 WSW 41 52 22 28 1021.0 1021.0 0.0
20/12:00am 5.2 -2.4 2.6 83 1.1 WSW 32 41 17 22 1021.4 1021.4 0.0
 
Date/Time
EST
Temp
°C
App
Temp
°C
Dew
Point
Rel
Hum
%
Delta-T
°C
Wind Press
QNH
hPa
Press
MSL
hPa
Rain
since 9 am
mm
Dir
 
Spd
km/h
Gust
km/h
Spd
kts
Gust
kts
19/11:30pm 5.3 -1.6 2.8 84 1.1 WSW 28 43 15 23 1021.5 1021.5 0.0
19/11:00pm 5.8 -1.4 3.0 82 1.2 WSW 30 41 16 22 1021.6 1021.6 0.0
19/10:30pm 6.2 -1.5 3.2 81 1.3 WSW 33 48 18 26 1021.6 1021.6 0.0
19/10:26pm 6.2 -1.0 3.2 81 1.3 WSW 30 48 16 26 1021.6 1021.6 0.0
19/10:00pm 6.5 1.0 3.8 83 1.2 WSW 22 28 12 15 1021.8 1021.9 0.0
19/09:30pm 6.5 0.9 3.7 82 1.2 WSW 22 30 12 16 1021.7 1021.8 0.0
19/09:00pm 6.5 1.3 3.7 82 1.2 W 20 28 11 15 1021.7 1021.8 0.0
19/08:30pm 6.3 1.7 3.6 83 1.2 W 17 26 9 14 1021.8 1021.9 0.0
19/08:00pm 6.6 1.4 3.6 81 1.3 WSW 20 28 11 15 1021.7 1021.8 0.0
19/07:30pm 6.6 1.4 3.4 80 1.4 WSW 20 28 11 15 1021.4 1021.4 0.0
19/07:00pm 6.9 1.9 3.5 79 1.5 WSW 19 28 10 15 1021.0 1021.0 0.0
19/06:30pm 7.3 1.7 3.4 76 1.7 WSW 22 30 12 16 1020.7 1020.8 0.0
19/06:00pm 7.4 2.4 3.5 76 1.7 W 19 24 10 13 1020.5 1020.5 0.0
19/05:30pm 8.4 2.8 3.3 70 2.3 WSW 22 28 12 15 1020.4 1020.4 0.0
19/05:00pm 9.2 3.5 2.8 64 2.8 W 22 30 12 16 1020.2 1020.2 0.0
19/04:30pm 10.4 4.5 4.1 65 2.9 WSW 24 33 13 18 1019.9 1019.9 0.0
19/04:00pm 9.9 2.4 3.2 63 3.0 WSW 32 41 17 22 1019.8 1019.8 0.0
19/03:30pm 10.4 3.8 4.1 65 2.9 SW 28 41 15 22 1019.4 1019.5 0.0
19/03:00pm 9.5 2.4 3.3 65 2.8 SW 30 41 16 22 1019.4 1019.5 0.0
19/02:30pm 11.3 5.1 4.1 61 3.4 WSW 26 35 14 19 1019.4 1019.5 0.0
19/02:00pm 9.8 2.9 2.6 61 3.2 WSW 28 37 15 20 1019.9 1019.9 0.0
19/01:30pm 9.6 2.0 2.7 62 3.1 WSW 32 41 17 22 1019.9 1019.9 0.0
19/01:00pm 10.5 3.5 4.0 64 3.0 WSW 30 48 16 26 1020.1 1020.1 0.0
19/12:30pm 10.1 2.6 3.6 64 3.0 WSW 32 46 17 25 1020.2 1020.2 0.0
19/12:00pm 9.3 1.2 3.3 66 2.7 WSW 35 48 19 26 1020.6 1020.7 0.0
19/11:52am 8.8 1.6 3.2 68 2.5 WSW 30 48 16 26 1020.6 1020.7 0.0
19/11:30am 8.7 1.2 3.5 70 2.3 WSW 32 46 17 25 1020.8 1020.9 0.0
19/11:00am 7.5 0.4 3.4 75 1.8 WSW 30 43 16 23 1021.0 1021.0 0.0
19/10:30am 7.4 -0.2 3.1 74 1.9 WSW 32 43 17 23 1021.2 1021.2 0.0
19/10:00am 7.2 0.6 4.0 80 1.4 W 28 37 15 20 1021.4 1021.4 0.0
19/09:30am 6.5 -1.2 3.3 80 1.4 W 33 43 18 23 1021.4 1021.4 0.0
19/09:00am 6.7 -0.5 3.0 77 1.6 W 30 35 16 19 1021.3 1021.3 0.0
19/08:30am 6.8 0.8 3.1 77 1.6 W 24 32 13 17 1021.3 1021.3 0.0
19/08:00am 5.8 1.4 2.6 80 1.4 W 15 24 8 13 1021.2 1021.2 0.0
19/07:30am 4.6 0.8 1.5 80 1.3 NNW 11 17 6 9 1020.8 1020.9 0.0
19/07:00am 3.2 -0.4 0.9 85 0.9 N 9 13 5 7 1020.8 1020.9 0.0
19/06:30am 1.8 -1.4 -0.3 86 0.8 N 6 9 3 5 1020.6 1020.7 0.0
19/06:00am 2.2 -1.5 -0.1 85 0.9 W 9 17 5 9 1020.3 1020.3 0.0
19/05:30am 2.2 -4.0 -0.1 85 0.9 W 22 30 12 16 1019.9 1019.9 0.0
19/05:00am 2.4 -3.4 -0.4 82 1.1 W 20 28 11 15 1019.9 1019.9 0.0
19/04:30am 3.0 -4.7 -0.3 79 1.3 WSW 30 41 16 22 1019.6 1019.6 0.0
19/04:00am 3.3 -4.0 -0.2 78 1.4 WSW 28 39 15 21 1019.3 1019.3 0.0
19/03:30am 3.1 -4.6 -0.4 78 1.4 WSW 30 39 16 21 1019.4 1019.5 0.0
19/03:00am 2.7 -5.1 -0.6 79 1.3 WSW 30 43 16 23 1019.7 1019.7 0.0
19/02:30am 3.0 -6.1 -0.6 77 1.4 W 37 50 20 27 1019.4 1019.5 0.0
19/02:00am 3.1 -4.9 0.2 81 1.1 WSW 32 41 17 22 1019.8 1019.8 0.0
19/01:30am 3.3 -3.4 1.3 87 0.8 W 26 33 14 18 1020.1 1020.1 0.0
19/01:00am 3.4 -3.3 1.6 88 0.7 W 26 37 14 20 1020.4 1020.4 0.0
19/12:30am 3.7 -3.7 2.1 89 0.7 W 30 37 16 20 1020.4 1020.4 0.0
19/12:00am 3.7 -1.8 2.1 89 0.7 W 20 30 11 16 1020.6 1020.7 0.0
 
Date/Time
EST
Temp
°C
App
Temp
°C
Dew
Point
Rel
Hum
%
Delta-T
°C
Wind Press
QNH
hPa
Press
MSL
hPa
Rain
since 9 am
mm
Dir
 
Spd
km/h
Gust
km/h
Spd
kts
Gust
kts
18/11:30pm 3.8 -1.6 2.3 90 0.6 WSW 20 32 11 17 1020.7 1020.8 0.0
18/11:00pm 3.8 -3.2 1.8 87 0.8 WSW 28 35 15 19 1020.4 1020.4 0.0
18/10:30pm 3.7 -1.6 1.9 88 0.7 W 19 28 10 15 1020.6 1020.7 0.0
18/10:00pm 3.9 -1.6 2.1 88 0.7 W 20 30 11 16 1020.6 1020.7 0.0
18/09:30pm 3.9 -2.3 2.3 89 0.7 W 24 37 13 20 1020.6 1020.7 0.0
18/09:00pm 4.2 -2.7 2.6 89 0.7 W 28 33 15 18 1020.2 1020.2 0.0
18/08:30pm 4.1 -2.4 2.6 90 0.6 WSW 26 33 14 18 1020.4 1020.4 0.0
18/08:00pm 3.8 -2.3 2.5 91 0.5 WSW 24 35 13 19 1020.2 1020.2 0.0
18/07:30pm 3.8 -2.7 2.6 92 0.5 WSW 26 35 14 19 1020.1 1020.1 0.0
18/07:00pm 4.5 -2.3 3.0 90 0.6 WSW 28 41 15 22 1019.7 1019.7 0.0
18/06:30pm 4.4 -1.8 2.4 87 0.8 WSW 24 28 13 15 1019.6 1019.6 0.0
18/06:00pm 5.0 -1.9 2.5 84 1.1 WSW 28 39 15 21 1019.8 1019.8 0.0
18/05:30pm 5.8 0.1 2.8 81 1.3 WSW 22 30 12 16 1019.2 1019.2 0.0
18/05:00pm 6.4 0.6 2.1 74 1.8 WSW 22 28 12 15 1018.7 1018.7 0.0
18/04:30pm 6.6 -0.2 0.9 67 2.4 WSW 26 35 14 19 1018.5 1018.5 0.0
18/04:00pm 7.6 -0.3 2.3 69 2.3 WSW 33 43 18 23 1018.3 1018.2 0.0
18/03:30pm 8.1 0.9 2.8 69 2.3 SW 30 41 16 22 1017.7 1017.7 0.0
18/03:00pm 8.7 0.3 1.4 60 3.1 WSW 35 48 19 26 1017.5 1017.5 0.0
18/02:30pm 8.5 0.5 1.9 63 2.9 WSW 33 43 18 23 1017.6 1017.6 0.0
18/02:00pm 8.8 1.5 2.4 64 2.8 WSW 30 43 16 23 1017.6 1017.6 0.0
18/01:30pm 7.6 0.1 3.3 74 1.9 WSW 32 44 17 24 1017.9 1017.9 0.0
18/01:00pm 8.1 0.5 0.8 60 3.1 SW 30 44 16 24 1017.6 1017.6 0.0
18/12:30pm 7.6 0.1 1.5 65 2.6 W 30 41 16 22 1017.8 1017.8 0.0
18/12:00pm 7.3 0.0 0.1 60 3.0 WSW 28 39 15 21 1017.9 1017.9 0.0
18/11:30am 6.9 0.1 1.0 66 2.5 WSW 26 39 14 21 1018.2 1018.1 0.0
18/11:00am 6.3 -0.1 1.0 69 2.2 WSW 24 43 13 23 1018.0 1018.0 0.0
18/10:47am 6.6 -0.8 1.9 72 2.0 WSW 30 50 16 27 1018.2 1018.1 0.0
18/10:30am 7.0 -1.1 0.7 64 2.6 WSW 33 43 18 23 1017.8 1017.8 0.0
18/10:00am 6.2 -2.0 0.3 66 2.4 WSW 33 46 18 25 1017.7 1017.7 0.0
18/09:30am 6.1 -1.8 1.2 71 2.0 WSW 32 41 17 22 1017.6 1017.6 0.0
18/09:00am 6.2 -2.9 2.1 75 1.7 WSW 39 52 21 28 1017.4 1017.4 1.4
18/08:30am 5.4 -3.4 1.3 75 1.7 WSW 37 48 20 26 1017.1 1017.0 1.4
18/08:00am 4.6 -3.3 1.3 79 1.4 WSW 32 41 17 22 1016.8 1016.7 1.4
18/07:30am 4.2 -5.0 1.2 81 1.2 WSW 39 54 21 29 1016.2 1016.2 1.4
18/07:00am 4.0 -3.1 1.2 82 1.1 SW 28 41 15 22 1016.1 1016.1 1.4
18/06:47am 3.8 -3.4 0.8 81 1.2 WSW 28 46 15 25 1015.9 1015.8 1.4
18/06:30am 3.6 -3.2 0.7 81 1.2 WSW 26 44 14 24 1015.6 1015.5 1.4
18/06:12am 3.6 -5.0 0.5 80 1.2 WSW 35 56 19 30 1015.0 1015.0 1.4
18/06:00am 3.8 -5.2 0.3 78 1.4 WSW 37 52 20 28 1014.7 1014.6 1.4
18/05:33am 3.6 -3.6 0.5 80 1.2 WSW 28 54 15 29 1014.7 1014.6 1.4
18/05:30am 3.7 -3.1 0.6 80 1.2 WSW 26 44 14 24 1014.7 1014.6 1.4
18/05:05am 3.3 -4.3 0.4 81 1.2 WSW 30 48 16 26 1014.6 1014.5 1.4
18/05:00am 3.3 -4.7 0.4 81 1.2 WSW 32 43 17 23 1014.5 1014.4 1.4
18/04:30am 3.2 -4.0 0.8 84 1.0 W 28 44 15 24 1014.2 1014.1 1.4
18/04:00am 3.0 -4.5 1.1 87 0.8 W 30 44 16 24 1014.1 1014.0 1.4
18/03:30am 2.9 -4.7 0.5 84 1.0 W 30 41 16 22 1013.6 1013.5 1.4
18/03:00am 3.2 -4.8 0.1 80 1.2 W 32 44 17 24 1013.5 1013.4 1.4
18/02:32am 3.2 -4.9 -0.6 76 1.5 W 32 50 17 27 1013.4 1013.3 1.4
18/02:30am 3.2 -5.1 -0.6 76 1.5 W 33 50 18 27 1013.4 1013.3 1.4
18/02:00am 2.7 -4.7 -0.9 77 1.4 W 28 37 15 20 1013.5 1013.4 1.4
18/01:30am 2.5 -3.7 -0.4 81 1.1 W 22 32 12 17 1013.6 1013.5 1.4
18/01:00am 2.7 -3.5 -0.4 80 1.2 W 22 30 12 16 1013.8 1013.8 1.4
18/12:30am 2.8 -3.4 -0.6 78 1.3 W 22 30 12 16 1014.3 1014.2 1.4
18/12:00am 2.5 -3.8 -0.8 79 1.3 W 22 35 12 19 1014.3 1014.2 1.4
 
Date/Time
EST
Temp
°C
App
Temp
°C
Dew
Point
Rel
Hum
%
Delta-T
°C
Wind Press
QNH
hPa
Press
MSL
hPa
Rain
since 9 am
mm
Dir
 
Spd
km/h
Gust
km/h
Spd
kts
Gust
kts
17/11:30pm 2.5 -4.9 -0.6 80 1.2 W 28 41 15 22 1014.1 1014.0 1.4
17/11:00pm 2.6 -5.5 -0.3 81 1.1 WSW 32 43 17 23 1014.1 1014.0 1.4
17/10:38pm 2.8 -6.6 -0.3 80 1.2 WSW 39 57 21 31 1013.8 1013.8 1.4
17/10:30pm 2.8 -6.6 -0.1 81 1.1 WSW 39 57 21 31 1013.6 1013.5 1.4
17/10:00pm 2.8 -6.2 0.4 84 0.9 WSW 37 50 20 27 1013.2 1013.1 1.4
17/09:30pm 3.0 -6.4 0.2 82 1.1 WSW 39 56 21 30 1013.1 1013.0 1.4
17/09:00pm 3.2 -4.9 1.1 86 0.8 WSW 33 52 18 28 1013.1 1013.0 1.4
17/08:30pm 3.3 -5.8 2.0 91 0.5 WSW 39 56 21 30 1012.9 1012.8 1.4
17/08:18pm 3.6 -5.1 2.0 89 0.7 SW 37 57 20 31 1012.8 1012.7 1.4
17/08:00pm 4.4 -4.1 2.9 90 0.6 SW 37 48 20 26 1012.8 1012.7 1.4
17/07:30pm 5.1 -2.3 3.9 92 0.5 WSW 32 43 17 23 1012.2 1012.1 1.4
17/07:10pm 5.4 -1.1 4.5 94 0.4 SW 28 56 15 30 1012.2 1012.1 1.2
17/07:00pm 5.5 -0.6 4.9 96 0.3 SW 26 35 14 19 1012.1 1012.0 1.0
17/06:30pm 6.6 0.3 5.7 94 0.4 SW 28 44 15 24 1011.3 1011.1 0.6
17/06:00pm 7.5 3.0 6.0 90 0.7 SW 19 26 10 14 1010.4 1010.3 0.6
17/05:30pm 9.6 5.9 4.4 70 2.4 WSW 13 19 7 10 1010.2 1010.0 0.0
17/05:00pm 10.0 6.7 4.6 69 2.5 WSW 11 15 6 8 1009.5 1009.4 0.0
17/04:30pm 10.2 5.8 4.6 68 2.6 SW 17 24 9 13 1009.0 1008.8 0.0
17/04:00pm 10.3 4.8 4.2 66 2.8 SW 22 28 12 15 1008.8 1008.6 0.0
17/03:30pm 11.7 5.2 2.7 54 4.1 W 26 35 14 19 1008.5 1008.3 0.0
17/03:00pm 13.2 6.2 4.1 54 4.3 W 30 41 16 22 1008.2 1008.1 0.0
17/02:30pm 12.4 5.5 2.6 51 4.5 W 28 39 15 21 1008.1 1008.0 0.0
17/02:00pm 13.3 5.7 2.8 49 4.9 W 32 48 17 26 1008.0 1007.8 0.0
17/01:30pm 11.5 4.3 0.9 48 4.6 W 28 39 15 21 1008.2 1008.1 0.0
17/01:00pm 12.3 4.0 2.2 50 4.6 W 35 48 19 26 1008.4 1008.2 0.0
17/12:30pm 12.1 5.2 2.6 52 4.3 WSW 28 37 15 20 1008.6 1008.4 0.0
17/12:13pm 11.6 3.7 2.1 52 4.3 W 33 52 18 28 1008.8 1008.6 0.0
17/12:00pm 11.5 3.2 2.0 52 4.3 W 35 46 19 25 1009.0 1008.8 0.0
17/11:30am 11.2 3.8 2.0 53 4.1 W 30 39 16 21 1009.2 1009.0 0.0
17/11:00am 10.8 2.8 1.6 53 4.1 W 33 50 18 27 1009.5 1009.4 0.0
17/10:53am 10.6 3.1 1.4 53 4.0 W 30 48 16 26 1009.3 1009.2 0.0
17/10:30am 10.4 3.4 2.0 56 3.7 WNW 28 39 15 21 1009.8 1009.6 0.0
17/10:00am 10.3 2.0 2.4 58 3.5 WNW 35 44 19 24 1009.9 1009.7 0.0
17/09:30am 9.3 1.5 2.6 63 3.0 W 33 43 18 23 1010.2 1010.0 0.0
17/09:00am 8.9 0.8 3.5 69 2.4 W 35 46 19 25 1010.2 1010.0 1.8
17/08:30am 8.4 1.5 4.8 78 1.7 W 30 35 16 19 1010.6 1010.5 1.8
17/08:00am 7.3 2.5 4.4 82 1.3 W 19 28 10 15 1010.5 1010.4 1.8
17/07:30am 6.8 1.4 4.5 85 1.0 WSW 22 35 12 19 1010.5 1010.4 1.8
17/07:00am 5.8 -0.4 4.3 90 0.7 WSW 26 37 14 20 1010.2 1010.0 1.8
17/06:30am 5.6 0.2 4.7 94 0.4 WSW 22 28 12 15 1010.1 1009.9 1.8
17/06:00am 5.9 0.5 4.4 90 0.7 WSW 22 32 12 17 1009.9 1009.7 1.8
17/05:30am 5.9 -0.3 4.1 88 0.8 WSW 26 35 14 19 1009.6 1009.5 1.8
17/05:00am 5.9 -0.3 4.2 89 0.8 SW 26 35 14 19 1009.4 1009.3 1.8
17/04:30am 6.0 -1.3 4.3 89 0.8 WSW 32 39 17 21 1009.3 1009.2 1.8
17/04:00am 6.3 -0.6 4.5 88 0.8 WSW 30 39 16 21 1009.1 1008.9 1.8

Other Formats:

Comma delimited format used in spreadsheet applications
http://www.bom.gov.au/fwo/IDN60801/IDN60801.94929.axf

JavaScript Object Notation format (JSON) in row-major order
http://www.bom.gov.au/fwo/IDN60801/IDN60801.94929.json